Time;durP1;ratioP1;P1;durP2;ratioP2;P2;SDS_P1;SDS_P2;PMS_P1;PMS_P2;Temp;Humidity;BMP_temperature;BMP_pressure;BME280_temperature;BME280_humidity;BME280_pressure;Samples;Min_cycle;Max_cycle;Signal;HPM_P1;HPM_P2
2023/01/22 00:00:16;;;;;;;3.17;2.85;;;;;;;6.89;100.00;62709.34;4967484;28;20269;-82
2023/01/22 00:02:43;;;;;;;2.92;2.47;;;;;;;6.90;100.00;62708.34;4971089;28;20278;-81
2023/01/22 00:05:10;;;;;;;3.60;2.58;;;;;;;7.01;100.00;62719.72;4960155;29;20221;-82
2023/01/22 00:07:37;;;;;;;4.82;4.07;;;;;;;6.96;100.00;62719.09;4958721;28;20239;-82
2023/01/22 00:10:06;;;;;;;7.30;4.00;;;;;;;6.84;100.00;62704.19;4968765;28;20220;-83
2023/01/22 00:12:34;;;;;;;2.92;2.72;;;;;;;6.69;100.00;62686.72;4970887;29;20233;-81
2023/01/22 00:15:02;;;;;;;2.97;2.75;;;;;;;6.81;100.00;62696.56;4970942;29;20215;-82
2023/01/22 00:17:30;;;;;;;4.03;3.03;;;;;;;6.87;100.00;62707.28;4971135;28;20240;-83
2023/01/22 00:19:57;;;;;;;4.25;2.85;;;;;;;6.93;100.00;62710.94;4969686;29;20225;-83
2023/01/22 00:22:24;;;;;;;4.22;3.65;;;;;;;7.05;100.00;62723.31;4972871;28;20244;-82
2023/01/22 00:24:51;;;;;;;6.55;4.57;;;;;;;6.86;100.00;62706.78;4968882;29;20216;-83
2023/01/22 00:27:20;;;;;;;9.90;6.25;;;;;;;6.86;100.00;62703.72;4970380;28;20553;-80
2023/01/22 00:29:47;;;;;;;7.25;5.78;;;;;;;6.93;100.00;62714.00;4970896;29;20260;-83
2023/01/22 00:32:14;;;;;;;7.07;5.60;;;;;;;6.99;100.00;62719.66;4969587;29;20295;-81
2023/01/22 00:34:41;;;;;;;8.93;6.25;;;;;;;6.94;100.00;62714.50;4970539;29;20205;-84
2023/01/22 00:37:08;;;;;;;6.30;5.15;;;;;;;7.02;100.00;62718.22;4965182;29;20241;-82
2023/01/22 00:39:35;;;;;;;9.73;5.60;;;;;;;7.03;100.00;62724.31;4971352;29;20201;-83
2023/01/22 00:42:02;;;;;;;7.35;5.40;;;;;;;6.99;100.00;62720.19;4971528;29;20228;-81
2023/01/22 00:44:30;;;;;;;3.00;2.80;;;;;;;6.95;100.00;62710.47;4953986;29;20205;-83
2023/01/22 00:46:57;;;;;;;2.20;2.10;;;;;;;6.98;100.00;62721.69;4967158;28;20224;-81
2023/01/22 00:49:24;;;;;;;2.50;2.20;;;;;;;6.97;100.00;62715.06;4967483;29;20205;-83
2023/01/22 00:51:51;;;;;;;2.38;2.20;;;;;;;6.84;100.00;62699.66;4971247;29;20224;-83
2023/01/22 00:54:18;;;;;;;3.60;2.95;;;;;;;6.66;100.00;62683.59;4970035;29;20201;-82
2023/01/22 00:56:45;;;;;;;3.40;3.17;;;;;;;6.71;100.00;62688.25;4971714;29;20240;-83
2023/01/22 00:59:12;;;;;;;5.10;3.22;;;;;;;6.64;100.00;62683.56;4977606;28;20212;-83
2023/01/22 01:01:41;;;;;;;4.15;3.05;;;;;;;6.54;100.00;62673.75;4970266;29;20220;-81
2023/01/22 01:04:08;;;;;;;3.78;3.47;;;;;;;6.40;100.00;62658.81;4969026;29;20212;-82
2023/01/22 01:06:35;;;;;;;11.35;4.28;;;;;;;6.47;100.00;62668.56;4962123;29;20225;-82
2023/01/22 01:09:04;;;;;;;11.23;5.35;;;;;;;6.39;100.00;62663.34;4970210;29;20216;-81
2023/01/22 01:11:31;;;;;;;8.27;5.95;;;;;;;6.44;100.00;62657.88;4972360;28;20225;-81
2023/01/22 01:13:58;;;;;;;7.22;5.43;;;;;;;6.41;100.00;62657.31;4970395;29;20564;-81
2023/01/22 01:16:29;;;;;;;5.78;4.78;;;;;;;6.46;100.00;62660.47;4967670;29;20225;-84
2023/01/22 01:18:59;;;;;;;7.88;5.07;;;;;;;6.46;100.00;62660.47;4968237;29;20384;-81
2023/01/22 01:21:27;;;;;;;7.38;4.55;;;;;;;6.38;100.00;62654.75;4968388;29;20225;-81
2023/01/22 01:23:55;;;;;;;3.05;2.80;;;;;;;6.45;100.00;62658.91;4959334;29;20276;-82
2023/01/22 01:26:22;;;;;;;2.45;2.20;;;;;;;6.43;100.00;62659.38;4967165;28;20229;-81
2023/01/22 01:28:51;;;;;;;1.80;1.70;;;;;;;6.34;100.00;62650.63;4971345;29;20208;-81
2023/01/22 01:31:19;;;;;;;2.92;2.40;;;;;;;6.08;100.00;62623.28;4969430;28;20229;-83
2023/01/22 01:33:47;;;;;;;2.08;1.98;;;;;;;6.27;100.00;62642.88;4972718;29;20238;-82
2023/01/22 01:36:17;;;;;;;4.32;2.05;;;;;;;6.17;100.00;62633.09;4968947;29;20521;-80
2023/01/22 01:38:44;;;;;;;2.35;2.22;;;;;;;6.15;100.00;62633.56;4969518;29;20209;-82
2023/01/22 01:41:14;;;;;;;2.75;2.28;;;;;;;6.11;100.00;62626.91;4969838;28;20229;-80
2023/01/22 01:43:41;;;;;;;2.17;2.08;;;;;;;6.09;100.00;62629.88;4966887;29;20201;-83
2023/01/22 01:46:17;;;;;;;6.13;3.40;;;;;;;6.10;100.00;62628.41;4970128;29;20256;-82
2023/01/22 01:48:46;;;;;;;2.83;2.63;;;;;;;6.10;100.00;62627.88;4956753;29;20201;-82
2023/01/22 01:51:19;;;;;;;1.92;1.73;;;;;;;6.08;100.00;62623.28;4961933;29;20236;-82
2023/01/22 01:53:49;;;;;;;1.95;1.85;;;;;;;6.08;100.00;62623.28;4967682;29;20408;-82
2023/01/22 01:56:20;;;;;;;1.58;1.40;;;;;;;6.08;100.00;62623.81;4969995;29;20217;-82
2023/01/22 01:58:50;;;;;;;1.05;1.02;;;;;;;6.10;100.00;62627.88;4956488;29;20233;-82
2023/01/22 02:01:18;;;;;;;1.13;0.93;;;;;;;6.14;100.00;62632.00;4957894;29;20225;-81
2023/01/22 02:03:47;;;;;;;2.58;1.40;;;;;;;6.09;100.00;62621.81;4965146;29;20213;-82
2023/01/22 02:06:18;;;;;;;1.50;1.40;;;;;;;6.07;100.00;62622.25;4969405;28;20427;-80
2023/01/22 02:08:47;;;;;;;1.25;1.15;;;;;;;5.83;100.00;62601.09;4970236;29;20196;-82
2023/01/22 02:11:15;;;;;;;1.67;1.58;;;;;;;5.94;100.00;62606.84;4969611;29;20232;-82
2023/01/22 02:13:46;;;;;;;1.35;1.25;;;;;;;5.88;100.00;62605.22;4969984;29;20232;-84
2023/01/22 02:16:14;;;;;;;1.00;1.00;;;;;;;5.88;100.00;62603.72;4968469;28;20235;-81
2023/01/22 02:18:41;;;;;;;0.77;0.77;;;;;;;5.90;100.00;62607.28;4968354;29;20238;-84
2023/01/22 02:21:35;;;;;;;0.75;0.75;;;;;;;5.83;100.00;62596.03;4968585;29;20237;-82
2023/01/22 02:24:04;;;;;;;1.83;1.08;;;;;;;5.75;100.00;62592.81;4956309;29;20243;-82
2023/01/22 02:26:31;;;;;;;0.98;0.98;;;;;;;5.64;100.00;62581.47;4974289;29;20229;-83
2023/01/22 02:28:58;;;;;;;1.25;1.15;;;;;;;5.81;100.00;62593.97;4969078;29;20213;-81
2023/01/22 02:31:25;;;;;;;0.80;0.80;;;;;;;5.80;100.00;62595.44;4973192;28;20267;-79
2023/01/22 02:33:53;;;;;;;2.55;0.75;;;;;;;5.78;100.00;62593.38;4972426;28;20221;-82
2023/01/22 02:36:21;;;;;;;0.90;0.90;;;;;;;5.90;100.00;62607.78;4972045;29;20232;-82
2023/01/22 02:38:49;;;;;;;1.00;0.98;;;;;;;5.85;100.00;62600.63;4970178;29;20260;-82
2023/01/22 02:41:17;;;;;;;0.65;0.65;;;;;;;5.71;100.00;62585.66;4972303;28;20256;-80
2023/01/22 02:43:44;;;;;;;4.50;0.80;;;;;;;5.78;100.00;62590.34;4971413;28;20376;-81
2023/01/22 02:46:11;;;;;;;0.80;0.65;;;;;;;5.54;100.00;62573.72;4962511;28;20235;-82
2023/01/22 02:48:38;;;;;;;3.80;1.08;;;;;;;5.58;100.00;62572.25;4969927;29;20252;-82
2023/01/22 02:51:06;;;;;;;1.13;0.77;;;;;;;5.67;100.00;62582.06;4972888;29;20241;-81
2023/01/22 02:53:33;;;;;;;2.85;1.00;;;;;;;5.59;100.00;62575.84;4973269;28;20204;-83
2023/01/22 02:56:05;;;;;;;0.77;0.77;;;;;;;5.56;100.00;62570.72;4968510;28;20229;-82
2023/01/22 02:58:34;;;;;;;3.38;1.55;;;;;;;5.61;100.00;62578.41;4972942;28;20288;-80
2023/01/22 03:01:17;;;;;;;1.75;1.42;;;;;;;5.67;100.00;62576.50;4969056;28;20276;-83
2023/01/22 03:03:45;;;;;;;1.35;0.98;;;;;;;5.69;100.00;62581.06;4973943;28;20216;-82
2023/01/22 03:06:14;;;;;;;1.92;1.23;;;;;;;5.71;100.00;62588.19;4959006;28;20329;-83
2023/01/22 03:08:43;;;;;;;1.30;1.20;;;;;;;5.60;100.00;62574.31;4954623;28;20201;-80
2023/01/22 03:11:12;;;;;;;6.82;1.58;;;;;;;5.59;100.00;62578.34;4965312;28;20243;-83
2023/01/22 03:21:52;;;;;;;2.10;1.90;;;;;;;5.47;100.00;62563.97;4969024;28;20495;-81
2023/01/22 03:24:20;;;;;;;2.58;1.60;;;;;;;5.47;100.00;62560.94;4970921;28;20411;-82
2023/01/22 03:26:48;;;;;;;1.20;1.20;;;;;;;5.46;100.00;62559.91;4971091;28;20296;-83
2023/01/22 03:29:16;;;;;;;1.50;1.40;;;;;;;5.48;100.00;62561.97;4971205;28;20227;-83
2023/01/22 03:31:47;;;;;;;1.20;1.20;;;;;;;5.40;100.00;62551.22;4971680;29;20232;-81
2023/01/22 03:34:15;;;;;;;1.80;1.70;;;;;;;5.40;100.00;62556.25;4957283;28;20225;-81
2023/01/22 03:36:42;;;;;;;1.85;1.23;;;;;;;5.39;100.00;62550.69;4953447;28;20550;-83
2023/01/22 03:39:09;;;;;;;1.30;1.30;;;;;;;5.40;100.00;62556.25;4970313;29;20247;-81
2023/01/22 03:41:36;;;;;;;1.85;1.75;;;;;;;5.46;100.00;62559.91;4969059;29;20410;-81
2023/01/22 03:44:08;;;;;;;1.80;1.70;;;;;;;5.45;100.00;62556.84;4974203;29;20234;-81
2023/01/22 03:46:35;;;;;;;2.33;1.90;;;;;;;5.42;100.00;62551.25;4971029;29;20264;-82
2023/01/22 03:49:02;;;;;;;1.80;1.70;;;;;;;5.32;100.00;62546.00;4973098;29;20252;-82
2023/01/22 03:51:30;;;;;;;2.40;2.17;;;;;;;5.31;100.00;62541.94;4956577;29;20233;-83
2023/01/22 03:53:58;;;;;;;2.85;2.50;;;;;;;5.29;100.00;62540.38;4971135;29;20280;-82
2023/01/22 03:56:26;;;;;;;3.38;2.60;;;;;;;5.24;100.00;62537.75;4966576;29;20239;-82
2023/01/22 03:58:53;;;;;;;2.10;1.90;;;;;;;5.22;100.00;62533.19;4972427;29;20236;-81
2023/01/22 04:01:23;;;;;;;2.63;2.42;;;;;;;5.21;100.00;62534.66;4969909;29;20280;-82
2023/01/22 04:03:51;;;;;;;4.72;2.85;;;;;;;5.20;100.00;62530.59;4970558;28;20189;-81
2023/01/22 04:06:20;;;;;;;6.85;3.60;;;;;;;5.16;100.00;62529.50;4971196;29;20251;-82
2023/01/22 04:08:49;;;;;;;3.17;2.85;;;;;;;5.14;100.00;62527.47;4963733;29;20260;-83
2023/01/22 04:11:18;;;;;;;3.28;2.97;;;;;;;5.06;100.00;62519.22;4969786;29;20876;-81
2023/01/22 04:13:46;;;;;;;6.28;2.70;;;;;;;5.14;100.00;62524.44;4954697;28;20205;-82
2023/01/22 04:16:15;;;;;;;2.65;2.45;;;;;;;5.15;100.00;62530.50;4968369;29;20225;-83
2023/01/22 04:18:43;;;;;;;3.47;2.50;;;;;;;5.18;100.00;62526.53;4968577;29;20247;-81
2023/01/22 04:21:10;;;;;;;2.35;2.15;;;;;;;5.09;100.00;62521.81;4969309;29;20229;-82
2023/01/22 04:23:37;;;;;;;3.90;2.25;;;;;;;4.93;100.00;62505.84;4969190;29;20244;-81
2023/01/22 04:26:05;;;;;;;1.85;1.75;;;;;;;4.86;100.00;62493.59;4971619;29;20235;-81
2023/01/22 04:28:32;;;;;;;3.65;2.05;;;;;;;4.96;100.00;62513.97;4971097;28;20287;-82
2023/01/22 04:30:59;;;;;;;1.90;1.80;;;;;;;4.87;100.00;62499.66;4971654;29;20271;-83
2023/01/22 04:33:26;;;;;;;4.18;2.05;;;;;;;4.86;100.00;62495.59;4971414;28;20486;-84
2023/01/22 04:35:55;;;;;;;1.50;1.40;;;;;;;4.90;100.00;62505.25;4968793;29;20518;-81
2023/01/22 04:38:22;;;;;;;1.33;1.23;;;;;;;4.88;100.00;62500.69;4972325;29;20292;-81
2023/01/22 04:40:50;;;;;;;2.70;1.42;;;;;;;4.84;100.00;62496.56;4970971;28;20223;-83
2023/01/22 04:43:17;;;;;;;4.32;2.10;;;;;;;4.89;100.00;62503.72;4967080;28;20216;-82
2023/01/22 04:45:44;;;;;;;5.85;1.88;;;;;;;4.88;100.00;62500.16;4966265;29;20213;-82
2023/01/22 04:48:12;;;;;;;1.73;1.45;;;;;;;4.86;100.00;62498.13;4968242;29;20267;-83
2023/01/22 04:50:39;;;;;;;2.45;2.08;;;;;;;4.77;100.00;62494.41;4969720;28;20228;-81
2023/01/22 04:53:08;;;;;;;2.42;1.65;;;;;;;4.67;100.00;62479.59;4972227;29;20211;-83
2023/01/22 04:55:35;;;;;;;1.77;1.67;;;;;;;4.54;100.00;62466.19;4959925;29;20206;-82
2023/01/22 04:58:02;;;;;;;3.47;2.20;;;;;;;4.46;100.00;62457.97;4954969;29;20244;-82
2023/01/22 05:00:30;;;;;;;1.52;1.38;;;;;;;4.41;100.00;62455.34;4963492;28;20206;-83
2023/01/22 05:02:57;;;;;;;0.98;0.98;;;;;;;4.55;100.00;62467.25;4972647;28;20267;-82
2023/01/22 05:05:25;;;;;;;4.63;1.90;;;;;;;4.56;100.00;62468.25;4967704;29;20237;-82
2023/01/22 05:07:52;;;;;;;1.50;1.35;;;;;;;4.51;100.00;62462.59;4963863;28;20232;-83
2023/01/22 05:10:22;;;;;;;2.58;1.70;;;;;;;4.52;100.00;62463.63;4970395;28;20211;-83
2023/01/22 05:12:49;;;;;;;2.42;2.22;;;;;;;4.65;100.00;62479.53;4969725;29;20228;-82
2023/01/22 05:15:16;;;;;;;2.75;2.40;;;;;;;4.67;100.00;62476.56;4967029;28;20435;-82
2023/01/22 05:17:43;;;;;;;2.25;2.03;;;;;;;4.74;100.00;62486.78;4968016;28;20267;-82
2023/01/22 05:20:11;;;;;;;3.72;2.33;;;;;;;4.83;100.00;62500.06;4970933;28;20209;-82
2023/01/22 05:22:38;;;;;;;3.85;2.80;;;;;;;4.93;100.00;62505.31;4980371;28;20221;-81
2023/01/22 05:25:06;;;;;;;4.10;2.35;;;;;;;4.86;100.00;62498.63;4970407;28;20259;-82
2023/01/22 05:27:35;;;;;;;4.82;2.40;;;;;;;4.97;100.00;62509.94;4968682;29;20259;-80
2023/01/22 05:30:01;;;;;;;4.35;2.00;;;;;;;4.99;100.00;62508.97;4967061;29;20228;-82
2023/01/22 05:32:28;;;;;;;2.30;1.77;;;;;;;4.94;100.00;62504.34;4971306;29;20227;-81
2023/01/22 05:34:55;;;;;;;6.45;1.90;;;;;;;4.95;100.00;62505.38;4971975;29;20248;-82
2023/01/22 05:37:22;;;;;;;2.00;1.80;;;;;;;5.04;100.00;62519.69;4961275;28;20231;-81
2023/01/22 05:39:49;;;;;;;2.25;1.60;;;;;;;5.00;100.00;62510.53;4963721;29;20251;-82
2023/01/22 05:42:16;;;;;;;1.80;1.70;;;;;;;5.04;100.00;62519.69;4972570;29;20221;-82
2023/01/22 05:44:45;;;;;;;2.25;1.98;;;;;;;5.03;100.00;62518.13;4969906;28;20206;-82
2023/01/22 05:47:13;;;;;;;3.22;1.80;;;;;;;5.10;100.00;62520.31;4969577;29;20231;-82
2023/01/22 05:49:41;;;;;;;1.27;1.17;;;;;;;5.13;100.00;62528.44;4969942;29;20208;-79
2023/01/22 05:52:09;;;;;;;1.17;1.10;;;;;;;5.10;100.00;62527.88;4970278;29;20240;-81
2023/01/22 05:54:38;;;;;;;1.35;1.17;;;;;;;5.17;100.00;62530.03;4966805;28;20236;-82
2023/01/22 05:57:06;;;;;;;1.80;1.70;;;;;;;5.22;100.00;62540.22;4971540;29;20224;-81
2023/01/22 05:59:33;;;;;;;3.70;1.25;;;;;;;5.24;100.00;62537.25;4972975;28;20282;-82
2023/01/22 06:02:03;;;;;;;4.57;1.63;;;;;;;4.97;100.00;62511.97;4974181;29;20228;-80
2023/01/22 06:04:30;;;;;;;2.03;1.80;;;;;;;5.26;100.00;62537.31;4972211;29;20232;-82
2023/01/22 06:06:57;;;;;;;2.92;2.60;;;;;;;5.19;100.00;62532.09;4974532;29;20228;-81
2023/01/22 06:09:24;;;;;;;3.97;2.85;;;;;;;5.20;100.00;62533.63;4974306;29;20310;-80
2023/01/22 06:11:51;;;;;;;6.10;3.50;;;;;;;5.18;100.00;62529.06;4973946;29;20225;-81
2023/01/22 06:14:19;;;;;;;5.50;2.85;;;;;;;5.17;100.00;62530.56;4974624;29;20284;-80
2023/01/22 06:16:46;;;;;;;3.80;3.08;;;;;;;5.27;100.00;62535.81;4973235;29;20220;-81
2023/01/22 06:19:14;;;;;;;3.63;3.33;;;;;;;5.28;100.00;62541.38;4971193;29;20236;-82
2023/01/22 06:21:42;;;;;;;2.85;2.63;;;;;;;5.24;100.00;62535.25;4971292;28;20225;-82
2023/01/22 06:24:10;;;;;;;3.80;2.95;;;;;;;5.25;100.00;62540.78;4975951;29;20236;-81
2023/01/22 06:26:37;;;;;;;4.75;2.80;;;;;;;5.12;100.00;62525.41;4972111;29;20225;-81
2023/01/22 06:29:04;;;;;;;5.65;2.90;;;;;;;5.24;100.00;62540.28;4971855;28;20221;-83
2023/01/22 06:31:33;;;;;;;3.17;1.92;;;;;;;5.20;100.00;62535.63;4967584;28;20259;-80
2023/01/22 06:34:01;;;;;;;2.00;1.88;;;;;;;5.13;100.00;62526.44;4971965;28;20441;-80
2023/01/22 06:36:29;;;;;;;5.32;2.45;;;;;;;5.35;100.00;62544.03;4971274;28;20244;-83
2023/01/22 06:38:56;;;;;;;4.00;1.92;;;;;;;5.32;100.00;62545.47;4966694;28;20237;-82
2023/01/22 06:41:23;;;;;;;2.80;2.53;;;;;;;5.32;100.00;62540.94;4971771;29;20220;-82
2023/01/22 06:43:50;;;;;;;5.50;3.30;;;;;;;5.43;100.00;62559.88;4972418;28;20520;-83
2023/01/22 06:46:18;;;;;;;10.32;6.28;;;;;;;5.33;100.00;62547.03;4972736;29;20258;-82
2023/01/22 06:48:45;;;;;;;6.47;3.20;;;;;;;5.32;100.00;62543.47;4971187;29;20212;-83
2023/01/22 06:51:13;;;;;;;3.92;2.72;;;;;;;5.28;100.00;62539.34;4974688;29;20230;-82
2023/01/22 06:53:41;;;;;;;6.45;4.78;;;;;;;5.24;100.00;62537.25;4974233;29;20379;-82
2023/01/22 06:56:08;;;;;;;6.00;4.72;;;;;;;5.18;100.00;62531.56;4973958;29;20248;-81
2023/01/22 06:58:35;;;;;;;5.10;4.60;;;;;;;5.21;100.00;62534.16;4968965;29;20228;-82
2023/01/22 07:01:03;;;;;;;6.35;4.47;;;;;;;5.24;100.00;62542.28;4969819;29;20229;-83
2023/01/22 07:03:31;;;;;;;5.32;4.80;;;;;;;5.12;100.00;62527.41;4974700;29;20221;-84
2023/01/22 07:06:00;;;;;;;8.40;4.72;;;;;;;5.31;100.00;62544.47;4971606;28;20227;-80
2023/01/22 07:08:27;;;;;;;8.90;5.75;;;;;;;5.80;100.00;62595.44;4969652;29;20268;-79
2023/01/22 07:10:56;;;;;;;19.17;10.82;;;;;;;6.27;100.00;62640.88;4967720;28;20264;-82
2023/01/22 07:13:23;;;;;;;27.13;15.57;;;;;;;6.67;100.00;62686.66;4965842;28;20221;-81
2023/01/22 07:15:50;;;;;;;18.40;9.02;;;;;;;7.04;100.00;62724.81;4953318;29;20212;-80
2023/01/22 07:18:19;;;;;;;9.60;7.28;;;;;;;7.22;100.00;62742.88;4962817;29;20268;-81
2023/01/22 07:20:47;;;;;;;10.60;6.60;;;;;;;7.23;100.00;62743.91;4971760;28;20494;-82
2023/01/22 07:23:14;;;;;;;9.27;6.78;;;;;;;7.28;100.00;62744.00;4969303;28;20228;-78
2023/01/22 07:25:41;;;;;;;10.18;7.13;;;;;;;7.52;100.00;62774.38;4968255;28;20269;-82
2023/01/22 07:28:13;;;;;;;12.38;7.93;;;;;;;7.92;100.00;62813.09;4972021;29;20573;-81
2023/01/22 07:30:42;;;;;;;9.75;7.28;;;;;;;8.24;100.00;62843.13;4970028;28;20225;-80
2023/01/22 07:33:10;;;;;;;7.43;5.97;;;;;;;8.42;100.00;62864.25;4960193;29;20239;-81
2023/01/22 07:35:37;;;;;;;9.93;5.82;;;;;;;8.30;100.00;62846.78;4971276;29;20209;-81
2023/01/22 07:38:05;;;;;;;7.07;4.93;;;;;;;8.24;100.00;62842.59;4971141;29;20205;-79
2023/01/22 07:40:32;;;;;;;7.47;6.07;;;;;;;8.16;100.00;62839.94;4968770;28;20231;-81
2023/01/22 07:42:59;;;;;;;14.27;8.95;;;;;;;8.07;100.00;62828.09;4969359;29;20231;-80
2023/01/22 07:45:28;;;;;;;10.35;6.97;;;;;;;7.86;100.00;62803.88;4971811;29;20236;-83
2023/01/22 07:47:58;;;;;;;9.30;6.93;;;;;;;7.90;100.00;62808.50;4972202;28;20236;-82
2023/01/22 07:50:27;;;;;;;8.82;5.03;;;;;;;7.88;100.00;62809.00;4973339;28;20218;-83
2023/01/22 07:52:54;;;;;;;5.40;4.85;;;;;;;8.09;100.00;62830.16;4972416;29;20228;-82
2023/01/22 07:55:22;;;;;;;6.47;4.38;;;;;;;8.04;100.00;62822.47;4973917;29;20256;-81
2023/01/22 07:57:49;;;;;;;3.83;3.38;;;;;;;8.00;100.00;62818.84;4965033;29;20225;-83
2023/01/22 08:00:16;;;;;;;3.95;3.65;;;;;;;7.95;100.00;62821.28;4970206;28;20318;-82
2023/01/22 08:02:50;;;;;;;5.15;4.63;;;;;;;7.85;100.00;62808.41;4972596;29;20311;-84
2023/01/22 08:05:17;;;;;;;5.22;4.72;;;;;;;8.02;100.00;62823.44;4973453;28;20224;-85
2023/01/22 08:07:47;;;;;;;6.47;3.75;;;;;;;7.96;100.00;62814.72;4976122;28;20425;-83
2023/01/22 08:10:15;;;;;;;5.72;3.88;;;;;;;8.00;100.00;62818.84;4970876;29;20268;-80
2023/01/22 08:12:42;;;;;;;5.53;3.63;;;;;;;8.04;100.00;62822.47;4970648;29;20472;-83
2023/01/22 08:15:10;;;;;;;3.65;3.35;;;;;;;8.20;100.00;62842.03;4971661;29;20205;-84
2023/01/22 08:17:41;;;;;;;5.43;3.40;;;;;;;8.36;100.00;62860.06;4972228;28;20225;-83
2023/01/22 08:20:11;;;;;;;3.67;2.88;;;;;;;8.39;100.00;62860.66;4967363;29;20516;-84
2023/01/22 08:22:38;;;;;;;4.78;3.40;;;;;;;8.16;100.00;62840.44;4977269;28;20231;-84
2023/01/22 08:25:06;;;;;;;3.30;3.03;;;;;;;8.31;100.00;62854.91;4974879;28;20240;-83
2023/01/22 08:27:35;;;;;;;6.10;4.25;;;;;;;8.63;100.00;62885.94;4959603;29;20363;-83
2023/01/22 08:30:03;;;;;;;6.95;4.85;;;;;;;8.80;100.00;62905.53;4974062;29;20209;-85
2023/01/22 08:32:30;;;;;;;8.63;6.35;;;;;;;8.67;100.00;62890.09;4969153;29;20282;-85
2023/01/22 08:34:57;;;;;;;11.35;6.88;;;;;;;8.81;100.00;62904.03;4971776;28;20252;-85
2023/01/22 08:37:26;;;;;;;11.73;6.88;;;;;;;8.92;100.00;62913.38;4973740;29;20231;-83
2023/01/22 08:39:53;;;;;;;16.15;8.43;;;;;;;8.84;100.00;62907.13;4972289;28;20300;-84
2023/01/22 08:42:20;;;;;;;13.25;8.52;;;;;;;9.16;100.00;62940.22;4970496;29;20220;-84
2023/01/22 08:44:48;;;;;;;16.50;10.60;;;;;;;9.22;100.00;62944.38;4967613;28;20209;-85
2023/01/22 08:47:15;;;;;;;21.35;13.05;;;;;;;9.23;100.00;62950.00;4973745;28;20237;-83
2023/01/22 08:49:43;;;;;;;25.15;14.23;;;;;;;9.21;100.00;62948.41;4973814;29;20211;-83
2023/01/22 08:52:10;;;;;;;18.90;12.38;;;;;;;9.40;100.00;62965.03;4964808;29;20429;-82
2023/01/22 08:54:39;;;;;;;18.20;12.35;;;;;;;9.29;100.00;62954.16;4969719;28;20213;-84
2023/01/22 08:57:07;;;;;;;15.25;11.85;;;;;;;9.30;100.00;62952.66;4975422;29;20225;-86
2023/01/22 08:59:35;;;;;;;16.35;12.65;;;;;;;9.21;100.00;62945.88;4971224;29;20232;-82
2023/01/22 09:02:02;;;;;;;18.48;13.48;;;;;;;9.15;100.00;62937.16;4965468;28;20229;-86
2023/01/22 09:04:29;;;;;;;17.45;13.98;;;;;;;9.02;100.00;62928.81;4973275;28;20205;-86
2023/01/22 09:06:57;;;;;;;16.33;10.57;;;;;;;9.15;100.00;62936.63;4971409;29;20221;-85
2023/01/22 09:09:24;;;;;;;18.70;11.65;;;;;;;8.95;100.00;62918.50;4970267;28;20215;-83
2023/01/22 09:11:54;;;;;;;17.00;12.25;;;;;;;9.27;100.00;62954.09;4970692;28;20257;-83
2023/01/22 09:14:21;;;;;;;19.55;13.77;;;;;;;9.30;100.00;62957.22;4973003;29;20209;-83
2023/01/22 09:16:48;;;;;;;24.83;14.43;;;;;;;9.40;100.00;62967.03;4968852;29;20279;-86
2023/01/22 09:19:16;;;;;;;23.38;14.40;;;;;;;9.17;100.00;62943.78;4969390;29;20403;-85
2023/01/22 09:21:44;;;;;;;15.77;11.10;;;;;;;9.54;100.00;62979.50;4965165;29;20228;-84
2023/01/22 09:24:13;;;;;;;14.63;10.38;;;;;;;9.58;100.00;62983.63;4973518;28;20275;-85
2023/01/22 09:26:41;;;;;;;13.45;10.43;;;;;;;9.68;100.00;62996.50;4972520;29;20231;-84
2023/01/22 09:29:10;;;;;;;28.58;17.98;;;;;;;9.73;100.00;63001.69;4970246;29;20225;-82
2023/01/22 09:31:42;;;;;;;25.90;19.13;;;;;;;9.70;100.00;62998.56;4956669;29;20562;-85
2023/01/22 09:34:10;;;;;;;23.10;15.80;;;;;;;9.96;100.00;63020.38;4966074;29;20231;-85
2023/01/22 09:36:38;;;;;;;19.25;12.85;;;;;;;10.04;100.00;63033.22;4972538;28;20220;-86
2023/01/22 09:39:05;;;;;;;18.55;12.15;;;;;;;10.04;100.00;63028.16;4972165;29;20243;-80
2023/01/22 09:41:34;;;;;;;12.27;10.10;;;;;;;10.15;100.00;63045.16;4965544;28;20229;-85
2023/01/22 09:44:06;;;;;;;11.45;8.10;;;;;;;10.11;100.00;63040.50;4970597;29;20204;-83
2023/01/22 09:46:41;;;;;;;5.00;4.38;;;;;;;10.04;100.00;63028.66;4968577;29;20288;-86
2023/01/22 09:49:14;;;;;;;5.75;3.60;;;;;;;10.04;100.00;63028.66;4968272;28;20208;-84
2023/01/22 09:51:44;;;;;;;4.18;2.70;;;;;;;10.11;100.00;63041.00;4968423;29;20231;-83
2023/01/22 09:54:16;;;;;;;2.63;2.50;;;;;;;9.95;100.00;63021.38;4976620;29;20272;-85
2023/01/22 09:56:48;;;;;;;2.42;2.33;;;;;;;9.94;100.00;63023.41;4977343;28;20220;-83
2023/01/22 09:59:18;;;;;;;2.88;2.67;;;;;;;9.94;100.00;63027.97;4961607;28;20235;-87
2023/01/22 10:01:55;;;;;;;3.20;2.90;;;;;;;10.11;100.00;63037.94;4969434;28;20295;-84
2023/01/22 10:04:36;;;;;;;3.10;2.90;;;;;;;10.15;100.00;63045.16;4973794;29;20200;-85
2023/01/22 10:07:07;;;;;;;3.30;3.00;;;;;;;10.11;100.00;63037.94;4973311;29;20212;-85
2023/01/22 10:09:38;;;;;;;2.60;2.40;;;;;;;10.11;100.00;63035.41;4974790;28;20207;-86
2023/01/22 10:12:12;;;;;;;2.00;1.90;;;;;;;10.00;98.58;63027.06;4965687;29;20244;-85
2023/01/22 10:14:42;;;;;;;2.67;2.47;;;;;;;10.20;100.00;63050.31;4967749;28;20436;-84
2023/01/22 10:17:18;;;;;;;2.63;2.42;;;;;;;10.50;99.28;63083.38;4963579;29;20213;-84
2023/01/22 10:19:49;;;;;;;2.83;2.63;;;;;;;10.67;99.77;63095.91;4964736;29;20255;-87
2023/01/22 10:22:21;;;;;;;3.97;3.60;;;;;;;11.09;100.00;63138.84;4966566;29;20228;-84
2023/01/22 10:25:00;;;;;;;3.40;3.10;;;;;;;11.15;97.72;63145.59;4972248;29;20208;-85
2023/01/22 10:27:39;;;;;;;3.35;3.15;;;;;;;11.03;97.50;63133.16;4975641;28;20291;-86
2023/01/22 10:30:20;;;;;;;6.82;5.57;;;;;;;11.46;99.35;63177.69;4973771;28;20509;-83
2023/01/22 10:32:58;;;;;;;7.85;5.63;;;;;;;11.43;100.00;63177.13;4966847;28;20464;-85
2023/01/22 10:35:26;;;;;;;5.88;5.25;;;;;;;11.36;100.00;63172.44;4971331;28;20257;-86
2023/01/22 10:37:55;;;;;;;8.75;7.07;;;;;;;11.28;100.00;63161.59;4966121;29;20231;-83
2023/01/22 10:40:29;;;;;;;6.68;5.97;;;;;;;11.43;100.00;63177.13;4967841;28;20233;-87
2023/01/22 10:43:05;;;;;;;7.13;5.10;;;;;;;11.26;100.00;63159.53;4972132;28;20230;-85
2023/01/22 10:45:33;;;;;;;7.15;6.22;;;;;;;11.73;99.98;63207.19;4975104;28;20223;-85
2023/01/22 10:48:18;;;;;;;7.20;6.53;;;;;;;11.98;99.33;63231.06;4976460;29;20221;-84
2023/01/22 10:50:47;;;;;;;5.95;4.95;;;;;;;11.76;98.40;63215.41;4977794;28;20220;-84
2023/01/22 10:53:20;;;;;;;6.05;5.45;;;;;;;11.43;98.36;63177.13;4972751;28;20275;-82
2023/01/22 10:56:01;;;;;;;6.18;5.25;;;;;;;11.12;100.00;63145.03;4972013;29;20396;-85
2023/01/22 10:58:31;;;;;;;4.88;4.47;;;;;;;11.12;100.00;63144.50;4972519;29;20404;-83
2023/01/22 11:01:08;;;;;;;5.70;5.20;;;;;;;11.05;100.00;63137.78;4972239;29;20263;-83
2023/01/22 11:03:38;;;;;;;4.65;4.25;;;;;;;11.02;100.00;63134.16;4970920;29;20248;-85
2023/01/22 11:06:31;;;;;;;8.57;5.10;;;;;;;10.95;100.00;63127.44;4976880;29;20284;-83
2023/01/22 11:09:04;;;;;;;9.20;7.93;;;;;;;10.71;100.00;63105.13;4969412;28;20200;-83
2023/01/22 11:11:36;;;;;;;10.27;5.85;;;;;;;10.37;100.00;63067.41;4973543;28;20299;-85
2023/01/22 11:14:10;;;;;;;6.63;5.95;;;;;;;10.27;100.00;63054.50;4970839;28;20236;-83
2023/01/22 11:16:40;;;;;;;7.78;7.05;;;;;;;10.29;100.00;63059.09;4969141;29;20228;-84
2023/01/22 11:19:15;;;;;;;6.45;5.85;;;;;;;10.12;100.00;63042.03;4964615;28;20261;-83
2023/01/22 11:21:46;;;;;;;5.95;5.45;;;;;;;10.17;100.00;63049.25;4968795;29;20319;-83
2023/01/22 11:24:17;;;;;;;9.20;7.28;;;;;;;10.00;100.00;63024.53;4962546;29;20213;-85
2023/01/22 11:26:59;;;;;;;11.77;9.35;;;;;;;10.04;100.00;63028.16;4969252;29;20220;-84
2023/01/22 11:29:54;;;;;;;8.38;7.38;;;;;;;10.21;100.00;63055.94;4967016;29;20229;-84
2023/01/22 11:32:52;;;;;;;7.38;6.20;;;;;;;10.09;100.00;63036.41;4972346;29;20220;-84
2023/01/22 11:35:30;;;;;;;9.25;6.03;;;;;;;9.91;100.00;63022.31;4966990;29;20553;-84
2023/01/22 11:38:11;;;;;;;7.25;6.55;;;;;;;9.92;100.00;63023.88;4972910;28;20413;-87
2023/01/22 11:40:48;;;;;;;8.13;5.80;;;;;;;9.93;100.00;63019.81;4969433;29;20239;-83
2023/01/22 11:43:36;;;;;;;6.68;5.70;;;;;;;9.69;100.00;62997.03;4973626;29;20200;-84
2023/01/22 11:46:23;;;;;;;11.02;8.82;;;;;;;9.81;100.00;63004.34;4979641;28;20288;-84
2023/01/22 11:49:04;;;;;;;7.45;6.43;;;;;;;9.54;100.00;62981.53;4971808;29;20205;-83